Time;durP1;ratioP1;P1;durP2;ratioP2;P2;SDS_P1;SDS_P2;PMS_P1;PMS_P2;Temp;Humidity;BMP_temperature;BMP_pressure;BME280_temperature;BME280_humidity;BME280_pressure;Samples;Min_cycle;Max_cycle;Signal;HPM_P1;HPM_P2
2021/09/08 00:00:06;;;;;;;10.35;7.13;;;24.10;87.90;;;;;;5071607;28;20108;-82
2021/09/08 00:02:31;;;;;;;10.77;7.03;;;24.10;87.90;;;;;;5071615;28;20468;-82
2021/09/08 00:04:57;;;;;;;9.05;6.90;;;24.10;88.00;;;;;;5071226;28;20028;-79
2021/09/08 00:07:22;;;;;;;9.40;7.03;;;24.00;87.90;;;;;;5072040;28;20024;-82
2021/09/08 00:09:48;;;;;;;8.55;6.75;;;24.00;87.90;;;;;;5071117;28;20028;-82
2021/09/08 00:12:14;;;;;;;9.00;6.80;;;24.00;87.90;;;;;;5070231;28;20032;-82
2021/09/08 00:14:40;;;;;;;10.18;7.78;;;24.00;88.10;;;;;;5072008;28;20047;-83
2021/09/08 00:17:06;;;;;;;10.95;7.10;;;24.00;87.80;;;;;;5071977;28;20385;-81
2021/09/08 00:19:31;;;;;;;9.93;7.10;;;24.00;87.80;;;;;;5070664;28;20025;-81
2021/09/08 00:21:57;;;;;;;10.80;7.43;;;24.00;87.60;;;;;;5069610;28;20032;-79
2021/09/08 00:24:23;;;;;;;10.45;7.68;;;24.00;87.60;;;;;;5071437;28;20112;-82
2021/09/08 00:26:49;;;;;;;10.15;7.00;;;24.00;87.60;;;;;;5070765;28;20016;-80
2021/09/08 00:29:14;;;;;;;8.50;6.72;;;24.00;87.40;;;;;;5071380;28;20029;-80
2021/09/08 00:31:40;;;;;;;9.63;7.07;;;24.00;87.30;;;;;;5071169;28;20045;-78
2021/09/08 00:34:06;;;;;;;10.48;7.32;;;24.00;87.30;;;;;;5071185;28;20037;-81
2021/09/08 00:36:31;;;;;;;12.80;7.22;;;24.00;87.50;;;;;;5070992;28;20036;-81
2021/09/08 00:38:57;;;;;;;10.68;7.22;;;23.90;87.20;;;;;;5070690;28;20035;-81
2021/09/08 00:41:23;;;;;;;11.85;7.35;;;23.90;87.30;;;;;;5071071;28;20447;-83
2021/09/08 00:43:49;;;;;;;11.98;7.43;;;24.00;87.40;;;;;;5069344;28;20119;-81
2021/09/08 00:46:15;;;;;;;10.65;6.97;;;24.00;87.40;;;;;;5071069;28;20077;-82
2021/09/08 00:48:40;;;;;;;11.43;8.30;;;23.90;87.80;;;;;;5070869;28;20032;-80
2021/09/08 00:51:06;;;;;;;10.20;7.30;;;23.90;87.90;;;;;;5070923;28;20381;-81
2021/09/08 00:53:34;;;;;;;8.88;6.97;;;23.90;88.10;;;;;;5071143;28;20025;-80
2021/09/08 00:56:03;;;;;;;11.00;7.55;;;23.90;88.40;;;;;;5070876;28;20413;-82
2021/09/08 00:58:28;;;;;;;8.23;6.32;;;24.00;88.60;;;;;;5070762;28;20029;-81
2021/09/08 01:00:54;;;;;;;10.77;7.13;;;23.90;88.70;;;;;;5071026;28;20025;-80
2021/09/08 01:03:19;;;;;;;10.02;7.38;;;23.90;88.90;;;;;;5070897;28;20033;-79
2021/09/08 01:05:46;;;;;;;14.45;7.63;;;23.90;88.90;;;;;;5070184;28;20025;-78
2021/09/08 01:08:13;;;;;;;11.95;6.75;;;23.90;89.00;;;;;;5069863;28;20543;-82
2021/09/08 01:10:39;;;;;;;10.07;7.40;;;23.90;89.10;;;;;;5070168;28;20024;-82
2021/09/08 01:13:06;;;;;;;13.70;7.47;;;23.90;89.30;;;;;;5070814;28;20032;-80
2021/09/08 01:15:32;;;;;;;11.23;7.75;;;23.90;89.30;;;;;;5070449;28;20096;-80
2021/09/08 01:17:57;;;;;;;10.57;7.68;;;23.90;89.30;;;;;;5070691;28;20060;-80
2021/09/08 01:20:23;;;;;;;11.38;7.07;;;23.90;89.20;;;;;;5070403;28;20033;-80
2021/09/08 01:22:51;;;;;;;8.98;6.75;;;23.80;89.10;;;;;;5070348;28;20173;-79
2021/09/08 01:25:24;;;;;;;8.85;7.40;;;23.90;89.20;;;;;;5071002;28;20017;-82
2021/09/08 01:27:52;;;;;;;9.40;7.38;;;23.90;89.90;;;;;;5070496;28;20028;-81
2021/09/08 01:30:21;;;;;;;8.95;7.05;;;23.80;89.10;;;;;;5071068;28;20088;-81
2021/09/08 01:32:49;;;;;;;12.55;7.95;;;23.80;89.10;;;;;;5071779;28;20031;-80
2021/09/08 01:35:19;;;;;;;12.10;7.05;;;23.80;89.00;;;;;;5074611;28;20052;-79
2021/09/08 01:37:46;;;;;;;8.68;7.18;;;23.80;88.90;;;;;;5074043;28;20039;-82
2021/09/08 01:40:13;;;;;;;10.30;7.07;;;23.80;88.90;;;;;;5073988;28;20024;-80
2021/09/08 01:42:39;;;;;;;9.82;7.28;;;23.80;88.70;;;;;;5074812;28;20020;-80
2021/09/08 01:45:05;;;;;;;10.20;7.93;;;23.80;88.70;;;;;;5074689;28;20036;-78
2021/09/08 01:47:30;;;;;;;9.60;7.07;;;23.80;88.50;;;;;;5074522;28;20040;-81
2021/09/08 01:49:56;;;;;;;10.82;7.88;;;23.80;89.10;;;;;;5074052;28;20384;-78
2021/09/08 01:52:22;;;;;;;11.52;7.55;;;23.80;88.50;;;;;;5072131;28;20518;-82
2021/09/08 01:54:48;;;;;;;9.45;7.32;;;23.70;88.40;;;;;;5074471;28;20081;-80
2021/09/08 01:57:14;;;;;;;11.73;7.63;;;23.80;88.40;;;;;;5073957;28;20107;-78
2021/09/08 01:59:39;;;;;;;9.25;7.22;;;23.80;88.20;;;;;;5073405;28;20114;-80
2021/09/08 02:02:05;;;;;;;8.93;7.43;;;23.80;88.20;;;;;;5074196;28;20017;-80
2021/09/08 02:04:31;;;;;;;10.07;7.57;;;23.80;88.10;;;;;;5072813;28;20025;-82
2021/09/08 02:06:56;;;;;;;9.48;7.65;;;23.70;87.90;;;;;;5073005;28;20544;-81
2021/09/08 02:09:22;;;;;;;11.05;7.15;;;23.70;88.00;;;;;;5074192;28;20099;-82
2021/09/08 02:11:48;;;;;;;9.75;6.45;;;23.70;88.00;;;;;;5072920;28;20043;-84
2021/09/08 02:14:14;;;;;;;9.60;7.40;;;23.70;87.90;;;;;;5074089;28;20028;-81
2021/09/08 02:16:40;;;;;;;10.55;7.20;;;23.70;87.80;;;;;;5074015;28;20021;-83
2021/09/08 02:19:06;;;;;;;10.32;7.68;;;23.70;87.80;;;;;;5073924;28;20047;-83
2021/09/08 02:21:31;;;;;;;10.07;7.38;;;23.70;87.80;;;;;;5073396;28;20024;-82
2021/09/08 02:23:57;;;;;;;11.05;7.65;;;23.70;87.70;;;;;;5073702;28;20408;-83
2021/09/08 02:26:23;;;;;;;10.95;7.55;;;23.60;87.60;;;;;;5073238;28;20469;-80
2021/09/08 02:28:48;;;;;;;9.57;7.40;;;23.60;87.50;;;;;;5072387;28;20509;-79
2021/09/08 02:31:14;;;;;;;11.52;7.18;;;23.60;87.40;;;;;;5073917;28;20033;-83
2021/09/08 02:33:40;;;;;;;9.02;7.15;;;23.60;87.30;;;;;;5073348;28;20033;-83
2021/09/08 02:36:06;;;;;;;11.15;7.47;;;23.60;87.30;;;;;;5073460;28;20111;-82
2021/09/08 02:38:33;;;;;;;11.07;7.40;;;23.60;87.30;;;;;;5073329;28;20115;-80
2021/09/08 02:41:00;;;;;;;9.75;7.07;;;23.60;87.20;;;;;;5073748;28;20032;-79
2021/09/08 02:43:26;;;;;;;13.68;7.97;;;23.60;87.20;;;;;;5072713;28;20025;-82
2021/09/08 02:45:52;;;;;;;9.15;6.78;;;23.60;87.00;;;;;;5072703;28;20024;-81
2021/09/08 02:48:18;;;;;;;10.63;7.35;;;23.60;86.90;;;;;;5073430;28;20036;-81
2021/09/08 02:50:43;;;;;;;9.15;6.93;;;23.60;87.00;;;;;;5071152;28;20067;-80
2021/09/08 02:53:09;;;;;;;9.52;7.03;;;23.60;86.90;;;;;;5073204;28;20387;-78
2021/09/08 02:55:35;;;;;;;9.65;7.55;;;23.60;86.80;;;;;;5073044;28;20020;-79
2021/09/08 02:58:00;;;;;;;9.75;6.95;;;23.60;86.80;;;;;;5072550;28;20040;-78
2021/09/08 03:00:26;;;;;;;10.82;8.18;;;23.50;86.50;;;;;;5073240;28;20034;-81
2021/09/08 03:02:52;;;;;;;8.80;6.72;;;23.60;86.50;;;;;;5072259;28;20522;-80
2021/09/08 03:05:17;;;;;;;10.80;7.57;;;23.60;86.40;;;;;;5072931;28;20475;-81
2021/09/08 03:07:43;;;;;;;10.02;7.63;;;23.50;86.20;;;;;;5072085;28;20429;-81
2021/09/08 03:10:09;;;;;;;10.20;7.78;;;23.50;86.90;;;;;;5072631;28;20029;-81
2021/09/08 03:12:35;;;;;;;11.05;7.45;;;23.50;86.10;;;;;;5073039;28;20154;-78
2021/09/08 03:15:01;;;;;;;9.95;7.53;;;23.50;86.00;;;;;;5072933;28;20067;-80
2021/09/08 03:17:26;;;;;;;9.98;7.50;;;23.50;85.90;;;;;;5072169;28;20035;-78
2021/09/08 03:19:52;;;;;;;9.95;7.38;;;23.50;85.90;;;;;;5072208;28;20032;-79
2021/09/08 03:22:18;;;;;;;11.63;7.65;;;23.50;85.90;;;;;;5072307;28;20564;-80
2021/09/08 03:24:43;;;;;;;12.05;8.00;;;23.50;85.90;;;;;;5073203;28;20468;-79
2021/09/08 03:27:09;;;;;;;11.25;7.38;;;23.50;85.70;;;;;;5060106;28;20035;-82
2021/09/08 03:29:35;;;;;;;10.80;7.80;;;23.50;85.80;;;;;;5072440;28;20484;-82
2021/09/08 03:32:00;;;;;;;11.75;8.50;;;23.50;85.70;;;;;;5071917;28;20609;-81
2021/09/08 03:34:26;;;;;;;11.52;7.68;;;23.50;85.60;;;;;;5071660;28;20032;-81
2021/09/08 03:36:51;;;;;;;10.48;7.32;;;23.50;85.50;;;;;;5072294;28;20032;-80
2021/09/08 03:39:17;;;;;;;10.25;8.18;;;23.40;85.40;;;;;;5071709;28;20450;-79
2021/09/08 03:41:43;;;;;;;10.35;7.80;;;23.50;85.50;;;;;;5072162;28;20020;-79
2021/09/08 03:44:08;;;;;;;10.30;7.78;;;23.40;85.10;;;;;;5072364;28;20103;-81
2021/09/08 03:46:34;;;;;;;10.07;7.20;;;23.40;85.00;;;;;;5071571;28;20444;-83
2021/09/08 03:48:59;;;;;;;11.65;9.15;;;23.40;85.00;;;;;;5071790;28;20029;-80
2021/09/08 03:51:25;;;;;;;11.50;7.78;;;23.40;85.00;;;;;;5070650;28;20040;-82
2021/09/08 03:53:51;;;;;;;13.32;7.97;;;23.40;85.10;;;;;;5071587;28;20036;-82
2021/09/08 03:56:16;;;;;;;9.90;7.53;;;23.40;84.90;;;;;;5071148;28;20028;-81
2021/09/08 03:58:42;;;;;;;11.18;8.45;;;23.30;84.90;;;;;;5072025;28;20021;-82
2021/09/08 04:01:08;;;;;;;11.23;8.63;;;23.40;84.80;;;;;;5072160;28;20032;-81
2021/09/08 04:03:34;;;;;;;11.07;7.97;;;23.40;84.80;;;;;;5071590;28;20085;-79
2021/09/08 04:06:00;;;;;;;12.05;7.72;;;23.40;84.50;;;;;;5072147;28;20013;-80
2021/09/08 04:08:25;;;;;;;12.20;7.78;;;23.40;84.50;;;;;;5071072;28;20498;-82
2021/09/08 04:10:51;;;;;;;10.65;8.25;;;23.40;84.40;;;;;;5071732;28;20385;-77
2021/09/08 04:13:17;;;;;;;8.73;7.50;;;23.40;84.40;;;;;;5071504;28;20443;-78
2021/09/08 04:15:42;;;;;;;9.63;7.90;;;23.40;84.20;;;;;;5070872;28;20052;-80
2021/09/08 04:18:08;;;;;;;10.05;6.82;;;23.30;84.00;;;;;;5071428;28;20031;-79
2021/09/08 04:20:33;;;;;;;11.88;8.27;;;23.30;84.00;;;;;;5071134;28;20025;-81
2021/09/08 04:22:59;;;;;;;10.85;8.43;;;23.30;83.90;;;;;;5071778;28;20032;-79
2021/09/08 04:25:25;;;;;;;12.18;8.27;;;23.30;83.90;;;;;;5071501;28;20025;-78
2021/09/08 04:27:50;;;;;;;9.68;7.72;;;23.30;83.90;;;;;;5069396;28;20111;-79
2021/09/08 04:30:16;;;;;;;11.60;7.35;;;23.30;83.70;;;;;;5070894;28;20060;-75
2021/09/08 04:32:42;;;;;;;10.07;8.23;;;23.30;83.80;;;;;;5071454;28;20033;-79
2021/09/08 04:35:08;;;;;;;9.23;7.90;;;23.30;83.80;;;;;;5071448;28;20082;-77
2021/09/08 04:37:33;;;;;;;10.25;8.30;;;23.30;83.70;;;;;;5070946;28;20040;-79
2021/09/08 04:39:59;;;;;;;11.55;7.85;;;23.30;83.60;;;;;;5070465;28;20025;-77
2021/09/08 04:42:25;;;;;;;10.40;8.25;;;23.30;83.60;;;;;;5070751;28;20374;-76
2021/09/08 04:44:50;;;;;;;10.35;7.63;;;23.30;83.50;;;;;;5070918;28;20032;-77
2021/09/08 04:47:16;;;;;;;10.32;8.38;;;23.30;83.60;;;;;;5069659;28;20028;-78
2021/09/08 04:49:42;;;;;;;9.18;7.93;;;23.20;83.40;;;;;;5070915;28;20028;-79
2021/09/08 04:52:07;;;;;;;11.73;7.45;;;23.30;83.50;;;;;;5070714;28;20122;-79
2021/09/08 04:54:33;;;;;;;12.20;8.95;;;23.20;83.40;;;;;;5070746;28;20036;-76
2021/09/08 04:56:58;;;;;;;10.70;8.38;;;23.20;83.40;;;;;;5071077;28;20483;-79
2021/09/08 04:59:24;;;;;;;9.90;7.97;;;23.20;83.40;;;;;;5070708;28;20436;-78
2021/09/08 05:01:50;;;;;;;11.35;9.05;;;23.20;83.20;;;;;;5070433;28;20031;-81
2021/09/08 05:04:15;;;;;;;11.57;8.23;;;23.20;83.20;;;;;;5069993;28;20104;-75
2021/09/08 05:06:41;;;;;;;11.40;7.60;;;23.20;83.20;;;;;;5071312;28;20468;-74
2021/09/08 05:09:07;;;;;;;11.85;8.85;;;23.20;83.20;;;;;;5069702;28;20530;-81
2021/09/08 05:11:32;;;;;;;11.00;7.95;;;23.20;83.10;;;;;;5070475;28;20078;-80
2021/09/08 05:13:58;;;;;;;14.20;7.93;;;23.20;83.00;;;;;;5070889;28;20017;-79
2021/09/08 05:16:24;;;;;;;10.18;8.65;;;23.20;82.90;;;;;;5070231;28;20078;-82
2021/09/08 05:18:50;;;;;;;11.05;8.80;;;23.20;82.90;;;;;;5069879;28;20388;-83
2021/09/08 05:21:15;;;;;;;10.07;8.13;;;23.20;83.10;;;;;;5070553;28;20037;-80
2021/09/08 05:23:41;;;;;;;11.13;8.05;;;23.20;82.80;;;;;;5071203;28;20024;-77
2021/09/08 05:26:07;;;;;;;11.05;8.68;;;23.20;82.90;;;;;;5068828;28;20405;-82
2021/09/08 05:28:32;;;;;;;11.20;7.93;;;23.10;82.80;;;;;;5070704;28;20021;-80
2021/09/08 05:30:58;;;;;;;11.48;9.07;;;23.10;82.50;;;;;;5069592;28;20033;-76
2021/09/08 05:33:24;;;;;;;9.55;7.68;;;23.10;82.50;;;;;;5070248;28;20032;-80
2021/09/08 05:35:50;;;;;;;10.02;7.80;;;23.10;82.40;;;;;;5069457;28;20027;-81
2021/09/08 05:38:15;;;;;;;10.15;8.48;;;23.10;82.50;;;;;;5070246;28;20033;-79
2021/09/08 05:40:41;;;;;;;9.32;7.85;;;23.10;82.50;;;;;;5069964;28;20039;-80
2021/09/08 05:43:07;;;;;;;10.18;7.78;;;23.10;82.50;;;;;;5068697;28;20036;-86
2021/09/08 05:45:32;;;;;;;10.23;8.38;;;23.10;82.30;;;;;;5069862;28;20056;-80
2021/09/08 05:47:58;;;;;;;11.45;8.07;;;23.10;82.50;;;;;;5070039;28;20028;-82
2021/09/08 05:50:23;;;;;;;10.18;7.43;;;23.10;82.30;;;;;;5069770;28;20082;-85
2021/09/08 05:52:49;;;;;;;11.73;8.15;;;23.10;82.30;;;;;;5070551;28;20116;-82
2021/09/08 05:55:15;;;;;;;13.23;8.93;;;23.10;81.70;;;;;;5070118;28;20020;-82
2021/09/08 05:57:40;;;;;;;10.52;8.35;;;23.10;82.30;;;;;;5069931;28;20036;-82
2021/09/08 06:00:06;;;;;;;11.13;8.20;;;23.10;82.40;;;;;;5069591;28;20017;-77
2021/09/08 06:02:32;;;;;;;21.85;13.27;;;23.00;82.10;;;;;;5070128;28;20020;-78
2021/09/08 06:04:58;;;;;;;20.30;15.38;;;22.90;81.70;;;;;;5068829;28;20035;-78
2021/09/08 06:07:23;;;;;;;22.17;15.27;;;22.70;81.20;;;;;;5069537;28;20120;-79
2021/09/08 06:09:49;;;;;;;23.35;15.82;;;22.60;82.20;;;;;;5069503;28;20031;-79
2021/09/08 06:12:14;;;;;;;25.92;18.48;;;22.30;83.00;;;;;;5070039;28;20041;-80
2021/09/08 06:14:40;;;;;;;25.02;16.55;;;22.20;83.90;;;;;;5069743;28;20036;-78
2021/09/08 06:17:06;;;;;;;22.77;15.18;;;22.10;84.20;;;;;;5070174;28;20044;-78
2021/09/08 06:19:32;;;;;;;23.45;16.05;;;22.10;84.60;;;;;;5073399;28;20021;-79
2021/09/08 06:21:58;;;;;;;22.73;16.60;;;22.00;85.20;;;;;;5073874;28;20097;-79
2021/09/08 06:24:24;;;;;;;24.38;18.35;;;22.00;85.60;;;;;;5073827;28;20170;-80
2021/09/08 06:26:49;;;;;;;26.67;17.17;;;22.00;85.80;;;;;;5071607;28;20025;-77
2021/09/08 06:29:16;;;;;;;25.83;16.25;;;22.00;86.50;;;;;;5073656;28;20427;-77
2021/09/08 06:31:42;;;;;;;25.05;16.35;;;21.90;87.30;;;;;;5072492;28;20041;-78
2021/09/08 06:34:09;;;;;;;24.33;17.33;;;21.90;88.00;;;;;;5072331;28;20067;-78
2021/09/08 06:36:34;;;;;;;29.35;17.05;;;21.90;88.40;;;;;;5073455;28;20028;-78
2021/09/08 06:39:00;;;;;;;26.17;16.58;;;21.80;88.60;;;;;;5073189;28;20104;-78
2021/09/08 06:41:26;;;;;;;28.42;16.35;;;21.80;89.40;;;;;;5072917;28;20078;-78
2021/09/08 06:43:52;;;;;;;28.65;15.75;;;21.80;90.00;;;;;;5073407;28;20024;-77
2021/09/08 06:46:19;;;;;;;33.40;18.13;;;21.70;90.30;;;;;;5073374;28;20023;-77
2021/09/08 06:48:44;;;;;;;23.73;16.63;;;21.80;90.40;;;;;;5072657;28;20025;-77
2021/09/08 06:51:11;;;;;;;31.80;17.63;;;21.70;90.80;;;;;;5072266;28;20448;-77
2021/09/08 06:53:37;;;;;;;26.92;17.27;;;21.70;90.70;;;;;;5071984;28;20526;-77
2021/09/08 06:56:03;;;;;;;26.02;15.15;;;21.80;90.60;;;;;;5071932;28;20032;-77
2021/09/08 06:58:29;;;;;;;26.05;14.02;;;21.80;90.70;;;;;;5071647;28;20093;-77
2021/09/08 07:00:54;;;;;;;31.42;16.80;;;21.80;90.90;;;;;;5071766;28;20524;-76
2021/09/08 07:03:20;;;;;;;23.42;14.93;;;21.80;90.90;;;;;;5071768;28;20024;-77
2021/09/08 07:05:46;;;;;;;23.73;15.95;;;21.80;91.10;;;;;;5072318;28;20109;-77
2021/09/08 07:08:14;;;;;;;29.95;15.68;;;21.80;91.30;;;;;;5071848;28;20040;-77
2021/09/08 07:10:40;;;;;;;28.20;16.10;;;21.90;91.40;;;;;;5071467;28;20032;-77
2021/09/08 07:13:05;;;;;;;25.73;16.40;;;21.80;91.30;;;;;;5071873;28;20033;-76
2021/09/08 07:15:31;;;;;;;33.58;16.98;;;21.80;91.40;;;;;;5071148;28;20110;-76
2021/09/08 07:17:57;;;;;;;34.45;16.25;;;21.90;91.50;;;;;;5071829;28;20507;-77
2021/09/08 07:20:23;;;;;;;28.52;15.55;;;21.80;91.30;;;;;;5070190;28;20558;-77
2021/09/08 07:22:49;;;;;;;21.48;14.15;;;21.90;91.60;;;;;;5071727;28;20036;-75
2021/09/08 07:25:14;;;;;;;29.45;14.95;;;21.90;91.40;;;;;;5072467;28;20036;-79
2021/09/08 07:27:40;;;;;;;20.33;13.55;;;22.00;91.10;;;;;;5071197;28;20262;-77
2021/09/08 07:30:07;;;;;;;22.23;12.45;;;22.10;90.90;;;;;;5071341;28;20126;-77
2021/09/08 07:32:32;;;;;;;33.53;13.80;;;22.10;90.80;;;;;;5071113;28;20028;-77
2021/09/08 07:34:59;;;;;;;20.35;12.52;;;22.20;90.80;;;;;;5072363;28;20021;-77
2021/09/08 07:37:26;;;;;;;19.33;12.40;;;22.20;90.70;;;;;;5071542;28;20103;-78
2021/09/08 07:39:51;;;;;;;18.58;12.13;;;22.20;90.60;;;;;;5069870;28;20024;-77
2021/09/08 07:42:17;;;;;;;20.38;12.15;;;22.30;90.70;;;;;;5072518;28;20025;-76
2021/09/08 07:44:43;;;;;;;25.30;13.20;;;22.30;90.60;;;;;;5072838;28;20024;-76
2021/09/08 07:47:10;;;;;;;24.08;12.65;;;22.30;90.60;;;;;;5071625;28;20381;-76
2021/09/08 07:49:36;;;;;;;19.02;11.10;;;22.30;90.70;;;;;;5072353;28;20034;-77
2021/09/08 07:52:02;;;;;;;16.25;10.50;;;22.40;90.70;;;;;;5072372;28;20451;-76
2021/09/08 07:54:27;;;;;;;20.80;11.25;;;22.40;90.60;;;;;;5071801;28;20036;-76
2021/09/08 07:56:53;;;;;;;20.95;11.70;;;22.40;90.50;;;;;;5072174;28;20560;-77
2021/09/08 07:59:19;;;;;;;19.10;11.93;;;22.40;90.50;;;;;;5071368;28;20021;-78
2021/09/08 08:01:45;;;;;;;18.80;12.15;;;22.40;90.40;;;;;;5070761;28;20086;-77
2021/09/08 08:04:10;;;;;;;18.35;11.98;;;22.40;90.40;;;;;;5070339;28;20024;-78
2021/09/08 08:06:37;;;;;;;14.45;10.55;;;22.50;90.50;;;;;;5070848;28;20430;-77
2021/09/08 08:09:04;;;;;;;14.48;10.45;;;22.50;90.40;;;;;;5071283;28;20104;-77
2021/09/08 08:11:30;;;;;;;19.50;10.90;;;22.50;90.40;;;;;;5071491;28;20036;-78
2021/09/08 08:13:55;;;;;;;18.30;10.70;;;22.60;90.40;;;;;;5070639;28;20047;-77
2021/09/08 08:16:21;;;;;;;16.38;10.35;;;22.60;90.40;;;;;;5070309;28;20163;-78
2021/09/08 08:18:47;;;;;;;17.73;10.23;;;22.60;90.30;;;;;;5070298;28;20020;-77
2021/09/08 08:21:12;;;;;;;16.85;10.98;;;22.60;90.30;;;;;;5071666;28;20039;-78
2021/09/08 08:23:38;;;;;;;17.75;10.13;;;22.60;90.20;;;;;;5071537;28;20066;-78
2021/09/08 08:26:04;;;;;;;17.33;10.07;;;22.60;90.20;;;;;;5070901;28;20021;-77
2021/09/08 08:28:33;;;;;;;14.25;10.77;;;22.70;90.20;;;;;;5071367;28;20458;-79
2021/09/08 08:30:59;;;;;;;15.00;9.32;;;22.70;90.10;;;;;;5071567;28;20036;-77
2021/09/08 08:33:28;;;;;;;15.20;9.25;;;;;;;;;;5071356;28;20034;-77
2021/09/08 08:35:54;;;;;;;15.32;9.82;;;;;;;;;;5071441;28;20052;-78
2021/09/08 08:38:21;;;;;;;14.40;9.55;;;;;;;;;;5069940;28;20059;-78
2021/09/08 08:40:47;;;;;;;18.98;10.57;;;;;;;;;;5070474;28;20028;-78
2021/09/08 08:43:13;;;;;;;14.48;9.85;;;;;;;;;;5070673;28;20104;-78
2021/09/08 08:45:39;;;;;;;15.10;9.75;;;;;;;;;;5071100;28;20020;-78
2021/09/08 08:48:05;;;;;;;15.40;10.27;;;;;;;;;;5071074;28;20025;-77
2021/09/08 08:50:32;;;;;;;12.43;9.38;;;;;;;;;;5069848;28;20035;-78
2021/09/08 08:52:58;;;;;;;16.52;10.40;;;;;;;;;;5070623;28;20100;-79
2021/09/08 08:55:24;;;;;;;15.05;9.85;;;;;;;;;;5068844;28;20085;-78
2021/09/08 08:57:51;;;;;;;16.50;8.98;;;;;;;;;;5069807;28;20026;-79
2021/09/08 09:00:18;;;;;;;15.35;10.23;;;;;;;;;;5069601;28;20028;-78
2021/09/08 09:02:48;;;;;;;12.60;9.32;;;;;;;;;;5068273;28;20107;-77
2021/09/08 09:05:28;;;;;;;13.73;9.10;;;;;;;;;;5070476;28;20036;-77
2021/09/08 09:07:54;;;;;;;12.18;8.85;;;;;;;;;;5067106;28;20436;-78
2021/09/08 09:10:20;;;;;;;13.60;9.40;;;;;;;;;;5069573;28;20549;-78
2021/09/08 09:12:46;;;;;;;13.55;8.32;;;;;;;;;;5070157;28;20503;-77
2021/09/08 09:15:16;;;;;;;16.40;9.68;;;;;;;;;;5069535;28;20488;-78
2021/09/08 09:17:42;;;;;;;14.98;9.77;;;;;;;;;;5067913;28;20043;-78
2021/09/08 09:20:10;;;;;;;14.43;8.93;;;;;;;;;;5067069;28;20044;-77
2021/09/08 09:22:36;;;;;;;14.70;8.57;;;;;;;;;;5069505;28;20024;-77
2021/09/08 09:25:03;;;;;;;14.75;9.23;;;;;;;;;;5069047;28;20105;-77
2021/09/08 09:27:33;;;;;;;12.13;8.65;;;;;;;;;;5069887;28;20016;-78
2021/09/08 09:30:04;;;;;;;13.00;9.20;;;;;;;;;;5070183;28;20017;-79
2021/09/08 09:32:49;;;;;;;15.45;9.90;;;;;;;;;;5069742;28;20451;-78
2021/09/08 09:35:17;;;;;;;15.57;9.30;;;;;;;;;;5071473;28;20456;-77
2021/09/08 09:37:47;;;;;;;10.85;8.63;;;;;;;;;;5071220;28;20028;-79
2021/09/08 09:40:14;;;;;;;11.13;8.27;;;;;;;;;;5070750;28;20051;-79
2021/09/08 09:42:40;;;;;;;11.32;8.45;;;;;;;;;;5070534;28;20082;-78
2021/09/08 09:45:07;;;;;;;13.43;9.23;;;;;;;;;;5070153;28;20028;-78
2021/09/08 09:47:34;;;;;;;10.70;8.32;;;;;;;;;;5070141;28;20379;-81
2021/09/08 09:50:01;;;;;;;12.50;9.15;;;;;;;;;;5070983;28;20024;-79
2021/09/08 09:52:27;;;;;;;12.07;8.82;;;;;;;;;;5070358;28;20372;-79
2021/09/08 09:54:53;;;;;;;10.43;7.97;;;;;;;;;;5074683;28;20021;-79
2021/09/08 09:57:19;;;;;;;11.73;8.65;;;;;;;;;;5073566;28;20064;-80
2021/09/08 09:59:45;;;;;;;13.48;8.07;;;;;;;;;;5073899;28;20071;-80
2021/09/08 10:02:12;;;;;;;13.60;9.45;;;;;;;;;;5074187;28;20038;-81
2021/09/08 10:04:38;;;;;;;12.13;8.23;;;;;;;;;;5073992;28;20028;-79
2021/09/08 10:07:06;;;;;;;10.88;7.90;;;;;;;;;;5074290;28;20499;-79
2021/09/08 10:09:33;;;;;;;14.40;8.13;;;;;;;;;;5074145;28;20028;-80
2021/09/08 10:12:00;;;;;;;15.05;9.43;;;;;;;;;;5073198;28;20051;-81
2021/09/08 10:14:27;;;;;;;12.77;8.77;;;;;;;;;;5073706;28;20024;-80
2021/09/08 10:16:53;;;;;;;10.40;8.30;;;;;;;;;;5072519;28;20492;-78
2021/09/08 10:19:24;;;;;;;10.18;8.40;;;;;;;;;;5072262;28;20396;-79
2021/09/08 10:21:51;;;;;;;16.30;7.97;;;;;;;;;;5073932;28;20074;-78
2021/09/08 10:24:17;;;;;;;14.23;8.18;;;;;;;;;;5074115;28;20048;-78
2021/09/08 10:26:45;;;;;;;20.40;8.55;;;23.30;88.00;;;;;;5073282;28;20408;-79
2021/09/08 10:29:11;;;;;;;15.50;8.48;;;23.50;87.10;;;;;;5073761;28;20024;-79
2021/09/08 10:31:40;;;;;;;18.75;9.07;;;23.50;86.00;;;;;;5073762;28;20033;-78
2021/09/08 10:34:07;;;;;;;11.40;8.02;;;23.50;85.80;;;;;;5071860;28;20031;-77
2021/09/08 10:36:35;;;;;;;13.90;8.52;;;23.60;85.50;;;;;;5073661;28;20031;-79
2021/09/08 10:39:03;;;;;;;16.55;8.90;;;23.70;85.30;;;;;;5074166;28;20017;-76
2021/09/08 10:41:45;;;;;;;14.45;7.88;;;23.70;85.20;;;;;;5071727;28;20090;-77
2021/09/08 10:44:13;;;;;;;12.30;7.95;;;23.80;85.10;;;;;;5073453;28;20218;-77
2021/09/08 10:46:56;;;;;;;11.02;7.95;;;23.80;84.80;;;;;;5073772;28;20111;-76
2021/09/08 10:49:38;;;;;;;12.23;9.05;;;23.90;84.80;;;;;;5073400;28;20028;-77
2021/09/08 10:52:08;;;;;;;13.45;8.15;;;23.90;84.70;;;;;;5073472;28;20056;-78
2021/09/08 10:54:54;;;;;;;13.10;8.25;;;24.00;84.40;;;;;;5073344;28;20024;-78
2021/09/08 10:57:38;;;;;;;21.63;13.77;;;24.10;83.80;;;;;;5072497;28;20108;-78
2021/09/08 11:00:05;;;;;;;90.53;47.92;;;24.30;83.50;;;;;;5073355;28;20052;-77
2021/09/08 11:02:31;;;;;;;44.85;27.65;;;24.30;83.10;;;;;;5071913;28;20032;-78
2021/09/08 11:04:59;;;;;;;37.17;23.23;;;24.40;81.30;;;;;;5071771;28;20118;-76
2021/09/08 11:07:25;;;;;;;36.30;20.50;;;24.60;80.40;;;;;;5079167;28;20393;-77
2021/09/08 11:09:51;;;;;;;36.22;16.40;;;24.60;79.40;;;;;;5078191;28;20017;-77
2021/09/08 11:12:17;;;;;;;30.40;17.08;;;24.70;78.40;;;;;;5079169;28;20039;-75
2021/09/08 11:14:50;;;;;;;18.52;13.43;;;24.80;78.80;;;;;;5072851;28;20025;-79
2021/09/08 11:17:24;;;;;;;24.50;15.48;;;24.90;77.90;;;;;;5053146;28;20037;-77
2021/09/08 11:19:55;;;;;;;19.58;12.10;;;24.90;79.40;;;;;;5064621;28;20021;-78
2021/09/08 11:22:21;;;;;;;21.60;13.00;;;24.90;78.10;;;;;;5083061;28;20017;-77
2021/09/08 11:25:02;;;;;;;21.67;13.45;;;24.90;78.10;;;;;;5072933;28;20472;-77
2021/09/08 11:27:27;;;;;;;17.70;11.85;;;24.90;79.20;;;;;;5071967;28;20488;-77
2021/09/08 11:30:08;;;;;;;16.23;10.90;;;24.90;78.90;;;;;;5071386;28;20043;-78
2021/09/08 11:32:55;;;;;;;17.77;11.82;;;25.00;79.10;;;;;;5070418;28;20569;-78
2021/09/08 11:35:33;;;;;;;18.35;10.57;;;;;;;;;;5070558;28;20021;-78
2021/09/08 11:37:59;;;;;;;12.20;8.95;;;25.00;76.50;;;;;;5071568;28;20039;-78
2021/09/08 11:40:25;;;;;;;16.35;9.57;;;25.10;76.80;;;;;;5071678;28;20029;-78
2021/09/08 11:42:50;;;;;;;15.18;9.93;;;25.10;76.40;;;;;;5071779;28;20106;-81
2021/09/08 11:45:30;;;;;;;15.80;9.90;;;25.10;77.20;;;;;;5072564;28;20485;-77
2021/09/08 11:47:56;;;;;;;13.95;9.90;;;25.10;78.20;;;;;;5072458;28;20024;-79
2021/09/08 11:50:22;;;;;;;14.68;9.95;;;25.10;78.10;;;;;;5071144;28;20039;-80
2021/09/08 11:52:59;;;;;;;11.90;9.38;;;25.10;78.10;;;;;;5072654;28;20039;-78
2021/09/08 11:55:38;;;;;;;14.15;9.13;;;25.10;77.30;;;;;;5071919;28;20020;-78
2021/09/08 11:58:20;;;;;;;11.32;8.80;;;25.10;76.80;;;;;;5072079;28;20020;-78
2021/09/08 12:01:04;;;;;;;10.57;7.93;;;25.10;75.70;;;;;;5072132;28;20029;-79
2021/09/08 12:03:31;;;;;;;10.27;7.80;;;25.10;75.30;;;;;;5071211;28;20404;-78
2021/09/08 12:06:14;;;;;;;13.90;8.70;;;25.10;76.20;;;;;;5071563;28;20035;-79
2021/09/08 12:09:11;;;;;;;14.23;8.02;;;25.20;76.20;;;;;;5072167;28;20046;-79
2021/09/08 12:11:45;;;;;;;12.07;8.18;;;25.20;76.20;;;;;;5067387;28;20044;-77
2021/09/08 12:14:19;;;;;;;11.70;8.10;;;25.10;76.10;;;;;;5071700;28;20024;-78
2021/09/08 12:17:08;;;;;;;12.20;7.93;;;25.20;75.70;;;;;;5071574;28;20036;-79
2021/09/08 12:19:38;;;;;;;11.40;8.02;;;25.20;76.00;;;;;;5071377;28;20021;-77
2021/09/08 12:22:12;;;;;;;9.82;7.78;;;25.20;75.30;;;;;;5071377;28;20506;-79
2021/09/08 12:24:41;;;;;;;10.40;7.50;;;25.20;75.60;;;;;;5071671;28;20472;-79
2021/09/08 12:27:37;;;;;;;9.40;7.90;;;25.20;75.30;;;;;;5071543;28;20527;-80
2021/09/08 12:30:10;;;;;;;11.27;8.38;;;25.20;75.50;;;;;;5071955;28;20442;-79
2021/09/08 12:33:04;;;;;;;11.57;7.65;;;25.20;75.30;;;;;;5071743;28;20032;-78
2021/09/08 12:35:53;;;;;;;9.38;7.20;;;25.30;75.80;;;;;;5070530;28;20031;-82
2021/09/08 12:38:35;;;;;;;10.23;7.55;;;25.20;75.40;;;;;;5071846;28;20032;-80
2021/09/08 12:41:21;;;;;;;10.38;6.80;;;25.20;75.00;;;;;;5072088;28;20031;-80
2021/09/08 12:43:52;;;;;;;9.10;6.60;;;25.30;75.30;;;;;;5070326;28;20020;-81
2021/09/08 12:46:35;;;;;;;10.75;7.20;;;25.30;75.00;;;;;;5071885;28;20040;-79
2021/09/08 12:49:01;;;;;;;12.18;7.47;;;25.30;75.10;;;;;;5071888;28;20072;-79
2021/09/08 12:51:26;;;;;;;10.85;7.07;;;25.30;74.50;;;;;;5070896;28;20083;-78